Latest Weather Observations for Sheoaks

IDV60901

Issued at 9:31 am EST Tuesday 30 August 2016 (issued every 10 minutes, with the page automatically refreshed every 10 minutes)

About weather observations | Map of Melbourne area stations | Latest observations for Melbourne area | Other Formats
Station Details ID: 087168 Name: SHEOAKS Lat: -37.91 Lon: 144.13 Height: 236.7 m
Data from the previous 72 hours. | See also: Recent months at Sheoaks
Date/Time
EST
Temp
°C
App
Temp
°C
Dew
Point
°C
Rel
Hum
%
Delta-T
°C
Wind Press
QNH
hPa
Press
MSL
hPa
Rain since
9am
mm
Dir  Spd
km/h
Gust
km/h
Spd
kts
Gust
kts
30/09:30am 12.7 7.1 5.6 62 3.4 N 24 41 13 22 1018.2 1018.5 0.0
30/09:00am 12.6 7.4 5.5 62 3.3 N 22 30 12 16 1018.6 1018.9 0.0
30/08:30am 12.4 7.2 5.3 62 3.3 N 22 30 12 16 1018.8 1019.1 0.0
30/08:00am 12.1 6.9 5.5 64 3.1 N 22 32 12 17 1018.8 1019.1 0.0
30/07:30am 12.2 7.4 5.6 64 3.1 N 20 28 11 15 1018.9 1019.2 0.0
30/07:00am 12.0 9.0 5.9 66 2.9 NNE 11 17 6 9 1019.4 1019.8 0.0
30/06:30am 10.9 8.6 5.7 70 2.4 N 7 11 4 6 1019.6 1020.0 0.0
30/06:00am 8.9 6.7 5.1 77 1.7 N 6 7 3 4 1019.6 1020.0 0.0
30/05:30am 8.8 7.0 5.4 79 1.6 NNE 4 6 2 3 1019.7 1020.1 0.0
30/05:00am 9.2 6.9 5.0 75 1.9 ESE 6 6 3 3 1019.1 1019.4 0.0
30/04:30am 9.2 7.4 5.2 76 1.8 ENE 4 6 2 3 1019.5 1019.9 0.0
30/04:00am 9.8 6.9 4.6 70 2.3 ESE 9 13 5 7 1018.8 1019.1 0.0
30/03:30am 10.7 8.2 4.6 66 2.8 E 7 9 4 5 1019.4 1019.8 0.0
30/03:00am 10.0 7.4 4.4 68 2.5 NE 7 11 4 6 1019.9 1020.3 0.0
30/02:30am 10.0 7.5 3.7 65 2.8 NE 6 6 3 3 1020.1 1020.5 0.0
30/02:00am 9.7 7.2 3.9 67 2.6 NE 6 7 3 4 1020.2 1020.6 0.0
30/01:30am 9.8 7.1 3.8 66 2.7 ENE 7 7 4 4 1020.3 1020.7 0.0
30/01:00am 10.5 8.0 3.5 62 3.1 NE 6 7 3 4 1020.6 1020.9 0.0
30/12:30am 10.5 7.4 3.8 63 3.0 NNE 9 13 5 7 1020.9 1021.2 0.0
30/12:00am 10.9 7.5 3.9 62 3.1 NNE 11 15 6 8 1021.0 1021.3 0.0
 
Date/Time
EST
Temp
°C
App
Temp
°C
Dew
Point
°C
Rel
Hum
%
Delta-T
°C
Wind Press
QNH
hPa
Press
MSL
hPa
Rain since
9am
mm
Dir  Spd
km/h
Gust
km/h
Spd
kts
Gust
kts
29/11:30pm 11.4 7.7 4.4 62 3.2 NE 13 19 7 10 1021.0 1021.3 0.0
29/11:00pm 11.7 8.0 4.7 62 3.2 NNE 13 19 7 10 1021.4 1021.7 0.0
29/10:30pm 12.4 8.3 4.6 59 3.6 NNE 15 24 8 13 1021.7 1022.0 0.0
29/10:00pm 12.2 8.3 5.4 63 3.2 NNE 15 20 8 11 1021.8 1022.1 0.0
29/09:30pm 11.9 8.9 5.8 66 2.9 NNE 11 17 6 9 1021.9 1022.2 0.0
29/09:00pm 12.2 8.7 5.6 64 3.1 NNE 13 17 7 9 1021.8 1022.1 0.0
29/08:30pm 12.1 8.6 5.5 64 3.1 NNE 13 19 7 10 1021.7 1022.0 0.0
29/08:00pm 11.4 8.7 5.7 68 2.7 NE 9 13 5 7 1021.7 1022.0 0.0
29/07:30pm 11.8 8.4 5.9 67 2.8 NE 13 17 7 9 1021.7 1022.0 0.0
29/07:00pm 13.1 9.3 5.8 61 3.5 NNE 15 19 8 10 1021.5 1021.8 0.0
29/06:30pm 13.5 9.6 5.4 58 3.8 NNE 15 22 8 12 1021.0 1021.3 0.0
29/06:00pm 13.9 10.0 5.3 56 4.1 NE 15 22 8 12 1020.7 1021.0 0.0
29/05:30pm 15.3 10.9 5.0 50 4.9 NE 17 24 9 13 1020.9 1021.2 0.0
29/05:00pm 16.4 11.6 4.8 46 5.5 NNE 19 26 10 14 1020.6 1020.9 0.0
29/04:30pm 17.1 12.0 4.1 42 6.2 NNE 20 28 11 15 1020.7 1021.0 0.0
29/04:00pm 17.5 12.9 3.8 40 6.5 N 17 26 9 14 1020.8 1021.1 0.0
29/03:30pm 17.5 12.9 3.8 40 6.5 N 17 24 9 13 1021.0 1021.3 0.0
29/03:00pm 18.1 13.1 3.6 38 6.8 NNE 19 28 10 15 1021.0 1021.3 0.0
29/02:30pm 17.7 13.1 3.9 40 6.6 NNE 17 26 9 14 1020.9 1021.2 0.0
29/02:00pm 17.7 13.6 4.6 42 6.3 N 15 24 8 13 1021.2 1021.5 0.0
29/01:30pm 17.8 12.4 2.5 36 7.1 N 20 33 11 18 1021.5 1021.8 0.0
29/01:00pm 17.5 12.3 3.4 39 6.6 N 20 28 11 15 1021.8 1022.1 0.0
29/12:30pm 16.9 12.2 3.2 40 6.4 N 17 22 9 12 1022.1 1022.4 0.0
29/12:00pm 15.9 10.8 4.0 45 5.6 N 20 30 11 16 1022.5 1022.8 0.0
29/11:30am 16.6 10.7 4.0 43 5.9 N 24 33 13 18 1022.4 1022.7 0.0
29/11:00am 16.7 11.9 4.7 45 5.7 N 19 35 10 19 1022.9 1023.2 0.0
29/10:30am 15.2 11.1 4.6 49 5.0 N 15 24 8 13 1023.3 1023.7 0.0
29/10:00am 13.4 9.4 5.1 57 3.9 N 15 22 8 12 1023.5 1023.9 0.0
29/09:30am 11.7 7.7 4.7 62 3.2 N 15 19 8 10 1023.8 1024.2 0.0
29/09:00am 11.7 7.6 4.2 60 3.4 N 15 20 8 11 1023.6 1024.0 0.0
29/08:30am 10.5 6.3 4.0 64 2.9 N 15 20 8 11 1023.5 1023.9 0.0
29/08:00am 8.8 4.9 3.2 68 2.4 NNW 13 17 7 9 1023.2 1023.6 0.0
29/07:30am 8.0 4.0 3.1 71 2.1 N 13 17 7 9 1022.9 1023.2 0.0
29/07:00am 7.3 3.7 2.8 73 1.9 N 11 17 6 9 1022.5 1022.8 0.0
29/06:30am 7.7 4.1 3.2 73 1.9 N 11 15 6 8 1022.1 1022.4 0.0
29/06:00am 7.9 4.3 3.2 72 2.0 N 11 15 6 8 1021.9 1022.2 0.0
29/05:30am 7.8 4.3 3.3 73 1.9 N 11 13 6 7 1021.8 1022.1 0.0
29/05:00am 8.2 4.7 3.7 73 2.0 N 11 17 6 9 1021.6 1021.9 0.0
29/04:30am 8.1 4.3 3.8 74 1.9 N 13 19 7 10 1021.3 1021.6 0.0
29/04:00am 8.0 4.2 3.7 74 1.9 N 13 19 7 10 1021.1 1021.4 0.0
29/03:30am 7.8 4.0 3.7 75 1.8 N 13 17 7 9 1021.1 1021.4 0.0
29/03:00am 7.4 3.9 3.3 75 1.8 N 11 15 6 8 1021.5 1021.8 0.0
29/02:30am 7.6 4.1 3.5 75 1.8 NNW 11 15 6 8 1021.6 1021.9 0.0
29/02:00am 8.1 3.8 3.4 72 2.0 NNW 15 20 8 11 1021.6 1021.9 0.0
29/01:30am 8.1 4.5 3.2 71 2.1 NNW 11 19 6 10 1021.6 1021.9 0.0
29/01:00am 8.5 5.0 3.4 70 2.2 NNW 11 15 6 8 1021.7 1022.0 0.0
29/12:30am 8.3 4.8 3.6 72 2.1 NNW 11 17 6 9 1021.7 1022.0 0.0
29/12:00am 8.7 4.9 3.9 72 2.1 NNW 13 17 7 9 1021.7 1022.0 0.0
 
Date/Time
EST
Temp
°C
App
Temp
°C
Dew
Point
°C
Rel
Hum
%
Delta-T
°C
Wind Press
QNH
hPa
Press
MSL
hPa
Rain since
9am
mm
Dir  Spd
km/h
Gust
km/h
Spd
kts
Gust
kts
28/11:30pm 8.9 5.6 4.3 73 2.1 NNW 11 15 6 8 1021.5 1021.8 0.0
28/11:00pm 9.6 6.3 4.6 71 2.2 NNW 11 15 6 8 1021.5 1021.8 0.0
28/10:30pm 9.5 6.3 5.1 74 2.0 NNW 11 17 6 9 1021.7 1022.0 0.0
28/10:00pm 9.5 6.8 5.5 76 1.8 NNW 9 13 5 7 1021.6 1021.9 0.0
28/09:30pm 10.0 6.9 5.6 74 2.0 N 11 15 6 8 1021.4 1021.7 0.0
28/09:00pm 10.1 7.0 5.5 73 2.1 N 11 15 6 8 1021.2 1021.5 0.0
28/08:30pm 10.0 7.3 5.6 74 2.0 N 9 13 5 7 1021.0 1021.3 0.0
28/08:00pm 8.9 6.2 5.5 79 1.6 N 9 11 5 6 1020.6 1020.9 0.0
28/07:30pm 10.1 7.9 5.3 72 2.2 N 6 7 3 4 1020.5 1020.8 0.0
28/07:00pm 10.8 9.3 4.9 67 2.7 N 2 7 1 4 1020.2 1020.6 0.0
28/06:30pm 12.7 10.5 5.4 61 3.4 NNW 6 6 3 3 1019.9 1020.3 0.0
28/06:00pm 13.4 11.7 5.8 60 3.6 N 4 7 2 4 1019.5 1019.9 0.0
28/05:30pm 14.8 13.2 6.4 57 4.1 WSW 4 6 2 3 1019.2 1019.5 0.0
28/05:00pm 15.4 13.6 5.6 52 4.7 NW 4 6 2 3 1019.0 1019.3 0.0
28/04:30pm 15.4 13.1 5.9 53 4.6 NW 7 13 4 7 1019.0 1019.3 0.0
28/04:00pm 15.9 12.5 5.8 51 4.9 NNW 13 20 7 11 1018.9 1019.2 0.0
28/03:30pm 15.9 13.2 5.8 51 4.9 NNW 9 17 5 9 1018.9 1019.2 0.0
28/03:00pm 15.4 12.6 5.3 51 4.8 NW 9 15 5 8 1019.0 1019.3 0.0
28/02:30pm 15.7 12.5 5.0 49 5.1 WNW 11 15 6 8 1018.9 1019.2 0.0
28/02:00pm 15.8 11.5 5.1 49 5.1 NW 17 22 9 12 1018.8 1019.1 0.0
28/01:30pm 15.7 12.8 4.7 48 5.2 W 9 19 5 10 1018.9 1019.2 0.0
28/01:00pm 16.2 13.6 6.1 51 4.9 NW 9 13 5 7 1019.3 1019.6 0.0
28/12:30pm 15.2 10.7 4.0 47 5.2 NW 17 26 9 14 1019.4 1019.8 0.0
28/12:00pm 15.6 12.1 5.5 51 4.9 NW 13 22 7 12 1019.7 1020.1 0.0
28/11:30am 14.6 9.9 3.4 47 5.1 NW 17 28 9 15 1019.9 1020.3 0.0
28/11:00am 13.7 10.0 4.3 53 4.4 NW 13 20 7 11 1019.9 1020.3 0.0
28/10:30am 13.1 9.3 4.0 54 4.2 NW 13 19 7 10 1019.9 1020.3 0.0
28/10:00am 12.3 8.4 3.5 55 4.0 NNW 13 20 7 11 1019.8 1020.2 0.0
28/09:30am 11.6 7.7 3.6 58 3.6 NW 13 22 7 12 1019.8 1020.2 0.0
28/09:00am 11.0 7.0 2.8 57 3.6 NW 13 20 7 11 1019.7 1020.1 0.0
28/08:30am 10.4 5.2 2.3 57 3.5 NNW 19 26 10 14 1019.7 1020.1 0.0
28/08:00am 9.9 5.4 2.0 58 3.4 NNW 15 26 8 14 1019.5 1019.9 0.0
28/07:30am 9.5 4.6 2.1 60 3.2 NNW 17 24 9 13 1019.3 1019.6 0.0
28/07:00am 9.8 4.9 1.9 58 3.3 NNW 17 24 9 13 1019.2 1019.5 0.0
28/06:30am 9.6 4.7 2.2 60 3.2 NNW 17 24 9 13 1018.8 1019.1 0.0
28/06:00am 9.3 4.8 2.4 62 2.9 NNW 15 20 8 11 1018.5 1018.8 0.0
28/05:30am 9.2 4.4 2.5 63 2.9 NNW 17 24 9 13 1018.1 1018.4 0.0
28/05:00am 9.1 4.3 2.4 63 2.9 NNW 17 26 9 14 1018.0 1018.3 0.0
28/04:30am 9.3 4.1 2.4 62 3.0 NNW 19 32 10 17 1017.8 1018.1 0.0
28/04:00am 9.3 3.9 2.4 62 2.9 NNW 20 32 11 17 1017.6 1017.9 0.0
28/03:30am 9.4 4.0 2.7 63 2.9 NNW 20 28 11 15 1017.5 1017.8 0.0
28/03:00am 9.2 4.1 3.0 65 2.7 NNW 19 28 10 15 1017.6 1017.9 0.0
28/02:30am 9.5 4.2 3.0 64 2.8 NNW 20 30 11 16 1017.6 1017.9 0.0
28/02:00am 9.8 4.7 3.1 63 2.9 NNW 19 30 10 16 1017.8 1018.1 0.0
28/01:30am 9.7 4.6 3.2 64 2.8 NNW 19 26 10 14 1017.9 1018.2 0.0
28/01:00am 9.8 4.6 3.3 64 2.8 NNW 20 33 11 18 1018.1 1018.4 0.0
28/12:30am 10.1 4.5 3.4 63 3.0 NNW 22 35 12 19 1018.1 1018.4 0.0
28/12:00am 10.1 4.9 3.6 64 2.9 NNW 20 32 11 17 1018.2 1018.5 0.0
 
Date/Time
EST
Temp
°C
App
Temp
°C
Dew
Point
°C
Rel
Hum
%
Delta-T
°C
Wind Press
QNH
hPa
Press
MSL
hPa
Rain since
9am
mm
Dir  Spd
km/h
Gust
km/h
Spd
kts
Gust
kts
27/11:30pm 10.1 5.1 3.6 64 2.9 NNW 19 28 10 15 1018.6 1018.9 0.0
27/11:00pm 10.1 4.9 3.8 65 2.8 NNW 20 30 11 16 1018.6 1018.9 0.0
27/10:30pm 10.0 5.0 3.7 65 2.8 NNW 19 28 10 15 1018.7 1019.0 0.0
27/10:00pm 9.9 4.3 3.6 65 2.8 NNW 22 32 12 17 1018.9 1019.2 0.0
27/09:30pm 10.0 4.8 3.7 65 2.8 NNW 20 33 11 18 1019.1 1019.4 0.0
27/09:00pm 9.9 5.0 3.9 66 2.7 NNW 19 30 10 16 1018.8 1019.1 0.0
27/08:30pm 10.0 5.0 3.7 65 2.8 NNW 19 28 10 15 1018.9 1019.2 0.0
27/08:00pm 10.0 4.8 3.5 64 2.9 NNW 20 33 11 18 1018.7 1019.0 0.0
27/07:30pm 10.3 4.7 3.3 62 3.1 NNW 22 35 12 19 1018.2 1018.5 0.0
27/07:00pm 10.1 4.8 3.2 62 3.0 NNW 20 32 11 17 1018.2 1018.5 0.0
27/06:30pm 10.3 6.0 3.1 61 3.2 NW 15 26 8 14 1018.3 1018.6 0.0
27/06:00pm 10.8 5.8 3.4 60 3.3 NW 19 35 10 19 1018.2 1018.5 0.0
27/05:30pm 11.6 5.2 3.4 57 3.7 NW 26 43 14 23 1017.7 1018.0 0.0
27/05:00pm 11.7 5.4 3.5 57 3.7 NW 26 43 14 23 1017.3 1017.6 0.0
27/04:30pm 11.6 5.6 3.4 57 3.7 NW 24 35 13 19 1017.8 1018.1 0.0
27/04:00pm 12.2 7.3 3.9 57 3.8 NW 19 32 10 17 1017.5 1017.8 0.0
27/03:30pm 12.1 6.5 3.6 56 3.8 NW 22 35 12 19 1017.9 1018.2 0.0
27/03:00pm 12.0 6.0 3.5 56 3.8 NW 24 37 13 20 1017.8 1018.1 0.0
27/02:30pm 11.9 6.3 3.7 57 3.7 NW 22 35 12 19 1018.3 1018.6 0.0
27/02:00pm 11.9 5.4 2.9 54 4.0 NW 26 41 14 22 1018.3 1018.6 0.0
27/01:30pm 11.9 6.3 3.4 56 3.8 NW 22 43 12 23 1018.6 1018.9 0.0
27/01:00pm 11.3 4.4 2.6 55 3.8 NW 28 43 15 23 1019.2 1019.5 0.0
27/12:30pm 11.3 6.6 3.3 58 3.6 NW 17 28 9 15 1019.7 1020.1 0.0
27/12:00pm 10.8 5.3 3.8 62 3.1 NW 22 35 12 19 1020.3 1020.7 0.0
27/11:30am 10.4 5.2 3.4 62 3.1 NW 20 32 11 17 1020.7 1021.0 0.0
27/11:00am 10.0 5.3 3.3 63 2.9 NW 17 30 9 16 1021.2 1021.5 0.0
27/10:30am 10.7 6.5 3.7 62 3.1 WNW 15 30 8 16 1021.2 1021.5 0.0
27/10:00am 9.5 4.1 2.6 62 3.0 WNW 20 33 11 18 1021.2 1021.5 0.0

Latest Capital City Observations: Canberra | Sydney | Melbourne | Brisbane | Adelaide | Perth | Hobart | Darwin

Other Formats:

Comma delimited format used in spreadsheet applications
http://www.bom.gov.au/fwo/IDV60901/IDV60901.94863.axf

JavaScript Object Notation format (JSON) in row-major order
http://www.bom.gov.au/fwo/IDV60901/IDV60901.94863.json